Airfield :
LOGIN :

Register | Disclaimer

   EN    FR    IT 

 










Legend :    VFR   Marginal VFR   IFR   Intensive IFR   Very Intensive IFR
Visi :
Ceiling :
>= 8 km
>= 3000ft
5 to 8 km
1000 to 3000 ft
1500m to 5 km
500 to 1000 ft
800 to 1500m
200 to 500 ft
< 800m
< 200 ft
Symbols :   Thunderstorms  Fog  Heavy snow  Heavy precipitations  Wind > 20 kt
SIGMETs :     Misc.  Thunderstorms  Icing  Turbulence  Mountain Waves  Volcanic Ashes







- Airport Elevation : 376 ft


LHKE - Kecskemét

CURRENT METAR :
  • 222115Z 14004KT CAVOK 19/14 Q1017 NOSIG RMK BLU

EXPIRED METARs :
  • 222045Z 13004KT CAVOK 19/14 Q1017 NOSIG RMK BLU
  • 222015Z 12006KT CAVOK 19/14 Q1017 NOSIG RMK BLU
  • 221945Z 14004KT CAVOK 20/14 Q1017 NOSIG RMK BLU
  • 221915Z 11004KT CAVOK 20/14 Q1017 NOSIG RMK BLU
  • 221845Z 14006KT CAVOK 21/14 Q1017 NOSIG RMK BLU

TAF TAF LHKE
Valid from the 22 at 18:00 until the 23 at 03:00 UTC


221715Z 2218/2303 15008KT CAVOK
PROB30
TEMPO 2218/2221 8000 RA SHRA SCT040TCU BKN083
BECMG 2218/2220 12005KT
No reported NOTAMs for that airfield.
1 SIGMET reported for the Budapest FIR (LHCC) :
 
Embedded thunderstorms
LHCC SIGMET 03 VALID 222000/222400 LHBP
LHCC BUDAPEST FIR EMBD TS OBS WI N4545 E01820 - N4725 E01730 - N4730 E01830 - N4555 E01900 - N4545 E01820 TOP FL380 MOV NE NC=



MET'MAP, your aeronautical weather chart ! - Copyright ORBIFLY December 2007 - Disclaimer

ORBIFLY MET'MAP TEAM :

Programming & Development : Alexandra Zaïnal
Concept & Development : Baudouin d'Aumeries
Co-Development & Prog : Marc-Olivier Méhu
Technical & hardware support : Manuel Goepfert

Contact : metmap@orbifly.com




SOURCES & CREDITS :

   NOAA